Time;durP1;ratioP1;P1;durP2;ratioP2;P2;SDS_P1;SDS_P2;PMS_P1;PMS_P2;Temp;Humidity;BMP_temperature;BMP_pressure;BME280_temperature;BME280_humidity;BME280_pressure;Samples;Min_cycle;Max_cycle;Signal;HPM_P1;HPM_P2
2022/12/26 00:00:28;;;;;;;4.60;1.70;;;;;;;5.20;100.00;99324.81;4953353;29;20413;-83
2022/12/26 00:02:55;;;;;;;5.47;1.60;;;;;;;5.26;100.00;99339.31;4954504;28;20051;-83
2022/12/26 00:05:22;;;;;;;8.00;2.03;;;;;;;5.19;100.00;99323.13;4954789;28;20053;-83
2022/12/26 00:07:49;;;;;;;6.82;2.42;;;;;;;5.24;100.00;99329.00;4953673;29;20062;-83
2022/12/26 00:10:16;;;;;;;8.55;2.20;;;;;;;5.07;100.00;99308.03;4954079;29;20094;-84
2022/12/26 00:12:42;;;;;;;7.78;1.70;;;;;;;4.92;100.00;99299.94;4953382;29;20059;-83
2022/12/26 00:15:10;;;;;;;8.43;1.90;;;;;;;4.95;100.00;99291.19;4954187;28;20525;-83
2022/12/26 00:17:36;;;;;;;8.25;1.92;;;;;;;5.14;100.00;99333.69;4954072;28;20509;-83
2022/12/26 00:20:04;;;;;;;7.38;1.73;;;;;;;4.89;100.00;99286.22;4953377;29;20058;-83
2022/12/26 00:22:30;;;;;;;4.57;1.58;;;;;;;5.14;100.00;99338.03;4954676;28;20090;-83
2022/12/26 00:24:57;;;;;;;7.40;1.90;;;;;;;5.07;100.00;99332.22;4953253;29;20059;-83
2022/12/26 00:27:24;;;;;;;8.77;2.10;;;;;;;4.72;100.00;99305.00;4953092;29;20076;-84
2022/12/26 00:29:51;;;;;;;6.65;1.70;;;;;;;4.95;100.00;99310.16;4954359;28;20469;-84
2022/12/26 00:32:17;;;;;;;7.20;1.85;;;;;;;4.84;100.00;99307.13;4954178;28;20043;-84
2022/12/26 00:34:44;;;;;;;9.90;1.80;;;;;;;4.85;100.00;99316.63;4953175;29;20043;-83
2022/12/26 00:37:11;;;;;;;9.18;1.80;;;;;;;4.71;100.00;99279.94;4953343;29;20043;-83
2022/12/26 00:39:37;;;;;;;11.30;1.85;;;;;;;4.94;100.00;99334.44;4953031;29;20046;-84
2022/12/26 00:42:04;;;;;;;5.50;1.83;;;;;;;4.97;100.00;99343.00;4953361;29;20055;-84
2022/12/26 00:44:31;;;;;;;5.75;1.80;;;;;;;4.76;100.00;99303.97;4953355;29;20063;-84
2022/12/26 00:46:58;;;;;;;6.40;1.42;;;;;;;4.77;100.00;99281.50;4953285;29;20831;-84
2022/12/26 00:49:24;;;;;;;6.22;1.70;;;;;;;4.95;100.00;99328.31;4953702;29;20402;-84
2022/12/26 00:51:51;;;;;;;8.25;2.25;;;;;;;4.70;100.00;99292.09;4953073;29;20047;-84
2022/12/26 00:54:18;;;;;;;6.18;1.42;;;;;;;4.96;100.00;99331.78;4952975;29;20055;-84
2022/12/26 00:56:45;;;;;;;7.88;2.03;;;;;;;5.10;100.00;99357.22;4952844;29;20070;-84
2022/12/26 00:59:11;;;;;;;5.22;1.40;;;;;;;4.68;100.00;99290.47;4953285;29;20055;-84
2022/12/26 01:01:38;;;;;;;2.92;1.30;;;;;;;4.99;100.00;99336.84;4954019;28;20054;-84
2022/12/26 01:04:05;;;;;;;6.90;1.83;;;;;;;5.02;100.00;99336.72;4953116;29;20051;-84
2022/12/26 01:06:32;;;;;;;5.60;1.52;;;;;;;4.92;100.00;99320.69;4952920;29;20050;-84
2022/12/26 01:08:59;;;;;;;8.25;1.67;;;;;;;5.10;100.00;99354.63;4953491;29;20106;-84
2022/12/26 01:11:41;;;;;;;6.90;1.88;;;;;;;5.05;100.00;99353.94;4954178;28;20051;-84
2022/12/26 01:14:16;;;;;;;8.70;2.85;;;;;;;5.05;100.00;99361.72;4953191;29;20051;-84
2022/12/26 01:16:45;;;;;;;7.95;2.55;;;;;;;4.91;100.00;99363.06;4949955;29;20497;-84
2022/12/26 01:19:12;;;;;;;7.10;2.13;;;;;;;4.65;100.00;99312.13;4953345;29;20057;-84
2022/12/26 01:21:41;;;;;;;5.68;1.73;;;;;;;4.90;100.00;99361.38;4953007;29;20051;-84
2022/12/26 01:24:08;;;;;;;6.28;1.85;;;;;;;4.93;100.00;99374.22;4952798;29;20453;-84
2022/12/26 01:26:35;;;;;;;3.63;1.45;;;;;;;4.87;100.00;99381.38;4954743;28;20469;-84
2022/12/26 01:29:02;;;;;;;7.70;1.70;;;;;;;4.76;100.00;99381.75;4957869;28;20047;-84
2022/12/26 01:31:29;;;;;;;8.20;1.83;;;;;;;4.60;100.00;99384.03;4956065;29;20051;-84
2022/12/26 01:33:56;;;;;;;6.00;2.17;;;;;;;4.44;100.00;99375.09;4954338;29;20450;-84
2022/12/26 01:36:22;;;;;;;7.68;1.73;;;;;;;4.23;100.00;99361.13;4946079;29;20453;-84
2022/12/26 01:38:49;;;;;;;7.82;1.50;;;;;;;4.13;100.00;99371.81;4956773;29;20051;-84
2022/12/26 01:41:16;;;;;;;4.47;1.75;;;;;;;4.25;100.00;99388.69;4958031;28;20497;-83
2022/12/26 01:44:03;;;;;;;3.83;1.55;;;;;;;4.26;100.00;99387.78;4954984;29;20429;-84
2022/12/26 01:46:37;;;;;;;8.75;1.50;;;;;;;4.16;100.00;99392.44;4955940;29;20047;-84
2022/12/26 01:49:12;;;;;;;3.78;1.40;;;;;;;4.03;100.00;99372.16;4956719;29;20062;-84
2022/12/26 01:51:42;;;;;;;6.15;1.73;;;;;;;4.11;100.00;99398.66;4956843;29;20054;-84
2022/12/26 01:54:11;;;;;;;8.32;2.28;;;;;;;4.02;100.00;99407.59;4955842;29;20055;-84
2022/12/26 01:57:01;;;;;;;5.85;1.80;;;;;;;4.01;100.00;99408.47;4957059;28;20387;-84
2022/12/26 01:59:31;;;;;;;3.40;1.40;;;;;;;3.85;100.00;99395.16;4956761;28;20064;-84
2022/12/26 02:01:59;;;;;;;4.05;1.60;;;;;;;3.70;100.00;99393.03;4955124;29;20110;-84
2022/12/26 02:07:23;;;;;;;4.18;1.40;;;;;;;3.54;100.00;99395.25;4957123;28;20074;-84
2022/12/26 02:09:50;;;;;;;5.07;1.40;;;;;;;3.28;100.00;99388.28;4956152;29;20437;-84
2022/12/26 02:12:28;;;;;;;4.10;1.52;;;;;;;3.23;100.00;99378.91;4956390;29;20382;-84
2022/12/26 02:15:09;;;;;;;2.55;1.20;;;;;;;3.52;100.00;99421.16;4956960;28;20056;-84
2022/12/26 02:17:37;;;;;;;4.10;1.40;;;;;;;3.39;100.00;99425.03;4955802;29;20493;-84
2022/12/26 02:20:23;;;;;;;8.65;2.00;;;;;;;2.88;100.00;99348.88;4956520;28;20282;-84
2022/12/26 02:23:08;;;;;;;7.93;1.92;;;;;;;3.21;100.00;99426.41;4955483;29;20047;-84
2022/12/26 02:26:07;;;;;;;6.70;1.70;;;;;;;3.25;100.00;99427.16;4955841;29;20059;-84
2022/12/26 02:28:36;;;;;;;3.88;1.63;;;;;;;3.23;100.00;99433.22;4952399;29;20059;-84
2022/12/26 02:31:31;;;;;;;7.85;1.40;;;;;;;3.31;100.00;99434.72;4955745;29;20403;-84
2022/12/26 02:34:33;;;;;;;5.90;2.22;;;;;;;3.31;100.00;99439.91;4955312;29;20123;-84
2022/12/26 02:37:22;;;;;;;5.45;1.33;;;;;;;3.25;100.00;99437.50;4932452;28;20059;-84
2022/12/26 02:40:04;;;;;;;10.05;2.22;;;;;;;3.22;100.00;99444.47;4970058;28;20405;-84
2022/12/26 02:42:32;;;;;;;5.65;1.70;;;;;;;3.18;100.00;99448.00;4955326;29;20051;-83
2022/12/26 02:48:29;;;;;;;6.35;1.63;;;;;;;3.02;100.00;99447.59;4954678;28;20052;-84
2022/12/26 03:14:31;;;;;;;4.95;1.50;;;;;;;2.76;100.00;99439.69;4955983;28;20048;-84
2022/12/26 03:17:20;;;;;;;9.68;1.85;;;;;;;2.76;100.00;99453.47;4953254;29;20065;-84
2022/12/26 03:20:07;;;;;;;9.20;2.17;;;;;;;2.73;100.00;99455.31;4954840;29;20050;-84
2022/12/26 03:22:48;;;;;;;6.22;1.80;;;;;;;2.60;100.00;99446.97;4970318;28;20058;-84
2022/12/26 03:28:09;;;;;;;4.30;1.40;;;;;;;2.39;100.00;99407.03;4955925;28;20453;-84
2022/12/26 03:30:48;;;;;;;7.90;1.98;;;;;;;2.43;100.00;99437.94;4954464;29;20114;-84
2022/12/26 03:36:33;;;;;;;5.88;1.70;;;;;;;2.52;100.00;99443.78;4956194;28;20475;-84
2022/12/26 04:20:08;;;;;;;4.18;1.30;;;;;;;2.45;100.00;99443.91;4944426;28;20406;-83
2022/12/26 04:46:19;;;;;;;11.95;1.50;;;;;;;1.99;100.00;99405.44;4937018;29;20051;-84
2022/12/26 04:51:35;;;;;;;3.97;1.35;;;;;;;2.15;100.00;99430.00;4934970;28;20055;-84
2022/12/26 04:54:02;;;;;;;5.32;1.50;;;;;;;2.26;100.00;99442.66;4948075;28;20414;-83
2022/12/26 04:56:29;;;;;;;4.85;1.45;;;;;;;2.16;100.00;99439.47;4956216;28;20054;-83
2022/12/26 04:58:56;;;;;;;10.63;2.53;;;;;;;2.01;100.00;99438.09;4968934;28;20058;-84
2022/12/26 05:09:52;;;;;;;8.75;1.60;;;;;;;2.01;100.00;99442.41;4950765;28;20051;-84
2022/12/26 05:12:20;;;;;;;3.85;1.40;;;;;;;1.72;100.00;99392.31;4945462;29;20552;-83
2022/12/26 05:14:47;;;;;;;4.10;1.40;;;;;;;1.66;100.00;99380.38;4953103;28;20051;-83
2022/12/26 05:28:41;;;;;;;5.35;1.63;;;;;;;2.23;100.00;99435.84;4953912;28;20055;-84
2022/12/26 05:31:13;;;;;;;6.38;1.38;;;;;;;2.11;100.00;99448.19;4949157;28;20075;-83
2022/12/26 05:36:35;;;;;;;3.63;1.35;;;;;;;2.22;100.00;99453.97;4946712;29;20055;-84
2022/12/26 05:39:02;;;;;;;4.80;1.50;;;;;;;2.20;100.00;99451.41;4952854;28;20102;-84
2022/12/26 05:41:29;;;;;;;2.38;1.25;;;;;;;2.10;100.00;99444.75;4952801;28;20051;-84
2022/12/26 05:43:56;;;;;;;4.32;1.42;;;;;;;2.09;100.00;99453.41;4952244;28;20062;-84
2022/12/26 05:46:23;;;;;;;5.47;1.52;;;;;;;1.94;100.00;99433.09;4952113;28;20052;-84
2022/12/26 05:48:49;;;;;;;8.15;1.48;;;;;;;1.96;100.00;99449.41;4952142;29;20133;-84
2022/12/26 05:51:16;;;;;;;4.53;1.65;;;;;;;1.82;100.00;99437.66;4953254;28;20126;-84
2022/12/26 05:53:43;;;;;;;3.75;1.38;;;;;;;1.85;100.00;99450.50;4939040;28;20391;-84
2022/12/26 05:56:12;;;;;;;4.85;1.30;;;;;;;1.78;100.00;99453.25;4945846;28;20063;-84
2022/12/26 05:58:40;;;;;;;3.72;1.30;;;;;;;1.75;100.00;99469.63;4951049;29;20051;-84
2022/12/26 06:01:09;;;;;;;2.53;1.17;;;;;;;1.92;100.00;99458.13;4964172;28;20051;-84
2022/12/26 06:03:37;;;;;;;3.38;1.40;;;;;;;1.67;100.00;99425.09;4948874;28;20127;-84
2022/12/26 06:06:05;;;;;;;6.28;2.53;;;;;;;1.64;100.00;99432.91;4962880;28;20457;-84
2022/12/26 06:08:32;;;;;;;4.20;1.20;;;;;;;1.86;100.00;99453.91;4956051;28;20417;-84
2022/12/26 06:11:02;;;;;;;5.80;1.20;;;;;;;1.51;100.00;99415.13;4952819;28;20074;-84
2022/12/26 06:13:29;;;;;;;6.57;1.40;;;;;;;1.79;100.00;99447.19;4938623;28;20039;-84
2022/12/26 06:15:57;;;;;;;3.83;1.20;;;;;;;1.61;100.00;99426.09;4948487;28;20067;-84
2022/12/26 06:18:25;;;;;;;2.45;1.30;;;;;;;1.61;100.00;99426.09;4955600;28;20051;-84
2022/12/26 06:20:51;;;;;;;2.47;1.30;;;;;;;1.27;100.00;99367.47;4955863;29;20043;-84
2022/12/26 06:23:18;;;;;;;1.92;1.13;;;;;;;1.29;100.00;99382.91;4952416;28;20478;-84
2022/12/26 06:25:52;;;;;;;5.00;1.65;;;;;;;1.69;100.00;99449.16;4945713;29;20474;-84
2022/12/26 06:28:19;;;;;;;3.65;1.30;;;;;;;1.57;100.00;99427.03;4953589;28;20051;-84
2022/12/26 06:30:46;;;;;;;3.72;1.45;;;;;;;1.58;100.00;99443.38;4959340;28;20047;-84
2022/12/26 06:33:12;;;;;;;3.00;1.25;;;;;;;1.59;100.00;99439.91;4949851;28;20051;-84
2022/12/26 06:35:39;;;;;;;2.17;1.23;;;;;;;1.42;100.00;99406.75;4936343;29;20047;-84
2022/12/26 06:38:06;;;;;;;4.57;1.30;;;;;;;1.25;100.00;99404.50;4948252;28;20051;-84
2022/12/26 06:40:32;;;;;;;3.80;1.05;;;;;;;1.35;100.00;99421.50;4942427;28;20047;-84
2022/12/26 06:42:59;;;;;;;5.75;1.33;;;;;;;1.33;100.00;99434.41;4956219;28;20051;-84
2022/12/26 06:45:26;;;;;;;5.13;1.20;;;;;;;1.42;100.00;99429.97;4971725;28;20051;-84
2022/12/26 06:47:52;;;;;;;3.35;1.48;;;;;;;1.20;100.00;99425.22;4947964;29;20051;-84
2022/12/26 06:50:21;;;;;;;2.15;1.30;;;;;;;1.10;100.00;99409.09;4942866;28;20055;-84
2022/12/26 06:52:48;;;;;;;3.60;1.40;;;;;;;1.40;100.00;99457.47;4958941;28;20039;-84
2022/12/26 06:55:15;;;;;;;2.95;1.20;;;;;;;1.42;100.00;99459.16;4955095;29;20512;-84
2022/12/26 06:57:42;;;;;;;5.07;1.13;;;;;;;1.35;100.00;99449.00;4942026;28;20055;-84
2022/12/26 07:00:09;;;;;;;4.82;1.50;;;;;;;1.31;100.00;99428.44;4956612;28;20134;-84
2022/12/26 07:02:36;;;;;;;2.95;1.23;;;;;;;1.43;100.00;99447.09;4954240;28;20047;-84
2022/12/26 07:05:03;;;;;;;3.08;1.30;;;;;;;1.22;100.00;99415.75;4937352;28;20071;-84
2022/12/26 07:07:30;;;;;;;2.47;1.35;;;;;;;1.15;100.00;99388.34;4948634;29;20067;-84
2022/12/26 07:09:57;;;;;;;6.82;1.40;;;;;;;1.31;100.00;99430.16;4955376;29;20622;-84
2022/12/26 07:12:23;;;;;;;2.72;1.30;;;;;;;0.87;100.00;99388.94;4955050;28;20430;-84
2022/12/26 07:14:50;;;;;;;6.60;1.50;;;;;;;1.12;100.00;99438.28;4955343;28;20489;-84
2022/12/26 07:17:20;;;;;;;3.72;1.67;;;;;;;0.98;100.00;99419.66;4952005;28;20062;-85
2022/12/26 07:19:47;;;;;;;2.42;1.20;;;;;;;0.66;100.00;99381.63;4954363;28;20415;-84
2022/12/26 07:22:14;;;;;;;3.05;1.20;;;;;;;0.82;100.00;99398.47;4943234;28;20470;-84
2022/12/26 07:24:40;;;;;;;4.65;1.33;;;;;;;1.12;100.00;99446.00;4935246;28;20074;-84
2022/12/26 07:27:07;;;;;;;2.70;1.20;;;;;;;0.88;100.00;99408.66;4954320;28;20114;-85
2022/12/26 07:29:34;;;;;;;3.33;1.30;;;;;;;1.10;100.00;99403.94;4943877;28;20099;-84
2022/12/26 07:32:01;;;;;;;4.40;1.23;;;;;;;1.39;100.00;99436.00;4936403;28;20054;-84
2022/12/26 07:34:29;;;;;;;4.10;1.35;;;;;;;1.25;100.00;99410.50;4945965;29;20047;-85
2022/12/26 07:36:57;;;;;;;2.30;1.20;;;;;;;1.61;100.00;99420.94;4955326;28;20051;-84
2022/12/26 07:39:24;;;;;;;3.67;1.65;;;;;;;1.80;100.00;99431.69;4955274;28;20051;-84
2022/12/26 07:41:56;;;;;;;2.45;1.33;;;;;;;1.79;100.00;99432.56;4955171;28;20497;-84
2022/12/26 07:44:24;;;;;;;3.15;1.50;;;;;;;1.87;100.00;99453.88;4954600;28;20051;-84
2022/12/26 07:46:51;;;;;;;4.95;1.58;;;;;;;1.59;100.00;99404.63;4954867;28;20048;-84
2022/12/26 07:49:18;;;;;;;3.97;1.30;;;;;;;1.61;100.00;99448.44;4955414;28;20104;-84
2022/12/26 07:51:45;;;;;;;5.95;1.42;;;;;;;1.90;100.00;99453.81;4953736;28;20058;-83
2022/12/26 07:54:12;;;;;;;5.75;1.33;;;;;;;2.00;100.00;99469.97;4940318;28;20055;-84
2022/12/26 07:56:40;;;;;;;6.65;1.20;;;;;;;2.04;100.00;99450.09;4970425;28;20050;-82
2022/12/26 07:59:13;;;;;;;5.22;1.33;;;;;;;2.20;100.00;99458.31;4968206;29;20055;-83
2022/12/26 08:01:41;;;;;;;6.82;1.73;;;;;;;2.08;100.00;99460.28;4968864;28;20054;-83
2022/12/26 08:04:10;;;;;;;1.92;1.23;;;;;;;2.18;100.00;99463.53;4975304;28;20051;-83
2022/12/26 08:06:37;;;;;;;3.45;1.35;;;;;;;2.13;100.00;99429.22;4958518;29;20111;-83
2022/12/26 08:09:04;;;;;;;3.10;1.30;;;;;;;2.23;100.00;99453.94;4969613;28;20110;-84
2022/12/26 08:11:33;;;;;;;7.03;1.40;;;;;;;2.08;100.00;99429.31;4969033;28;20123;-84
2022/12/26 08:14:01;;;;;;;5.80;1.42;;;;;;;2.12;100.00;99424.91;4975513;28;20071;-83
2022/12/26 08:16:28;;;;;;;4.97;1.40;;;;;;;2.04;100.00;99422.53;4967138;29;20130;-84
2022/12/26 08:18:55;;;;;;;3.08;1.35;;;;;;;1.94;100.00;99408.13;4960295;29;20034;-83
2022/12/26 08:21:22;;;;;;;5.43;1.50;;;;;;;2.00;100.00;99436.41;4965321;28;20061;-84
2022/12/26 08:23:49;;;;;;;2.78;1.13;;;;;;;2.08;100.00;99472.34;4969020;28;20055;-82
2022/12/26 08:26:21;;;;;;;2.72;1.25;;;;;;;2.00;100.00;99456.19;4967786;28;20043;-82
2022/12/26 08:28:50;;;;;;;8.18;1.80;;;;;;;2.08;100.00;99491.28;4955600;29;20047;-83
2022/12/26 08:31:18;;;;;;;3.60;1.40;;;;;;;1.74;100.00;99449.06;4967615;29;20089;-82
2022/12/26 08:33:45;;;;;;;4.47;1.45;;;;;;;2.07;100.00;99491.31;4963916;28;20067;-82
2022/12/26 08:36:15;;;;;;;4.47;1.70;;;;;;;1.90;100.00;99482.22;4961307;29;20066;-81
2022/12/26 08:38:42;;;;;;;4.80;1.73;;;;;;;2.00;100.00;99490.63;4970557;29;20035;-82
2022/12/26 08:41:10;;;;;;;5.72;2.00;;;;;;;2.01;100.00;99488.88;4970096;28;20046;-81
2022/12/26 08:43:37;;;;;;;3.65;1.40;;;;;;;2.07;100.00;99468.94;4969743;28;20057;-82
2022/12/26 08:46:24;;;;;;;2.50;1.27;;;;;;;1.81;100.00;99427.38;4965039;28;20051;-82
2022/12/26 08:48:51;;;;;;;8.95;1.60;;;;;;;1.78;100.00;99451.50;4970459;28;20051;-82
2022/12/26 08:51:20;;;;;;;1.98;1.10;;;;;;;1.97;100.00;99477.78;4976694;28;20063;-82
2022/12/26 08:53:48;;;;;;;5.30;1.30;;;;;;;1.59;100.00;99408.94;4962218;28;20051;-82
2022/12/26 08:56:22;;;;;;;4.85;1.33;;;;;;;1.76;100.00;99440.38;4957966;28;20051;-82
2022/12/26 08:58:50;;;;;;;3.28;1.25;;;;;;;2.04;100.00;99483.66;4970524;29;20079;-82
2022/12/26 09:01:23;;;;;;;3.75;1.30;;;;;;;1.54;100.00;99434.84;4971498;28;20140;-82
2022/12/26 09:03:52;;;;;;;5.25;1.40;;;;;;;1.94;100.00;99493.31;4969698;29;20055;-82
2022/12/26 09:06:20;;;;;;;7.38;1.48;;;;;;;1.85;100.00;99475.47;4983613;28;20031;-83
2022/12/26 09:08:47;;;;;;;9.95;1.90;;;;;;;1.57;100.00;99450.25;4972306;29;20134;-82
2022/12/26 09:11:22;;;;;;;3.70;1.40;;;;;;;2.01;100.00;99494.03;4961688;29;20051;-81
2022/12/26 09:13:48;;;;;;;4.13;1.60;;;;;;;1.77;100.00;99477.34;4951102;29;20120;-80
2022/12/26 09:16:22;;;;;;;4.20;1.52;;;;;;;1.76;100.00;99479.09;4957090;29;20059;-82
2022/12/26 09:18:53;;;;;;;6.68;1.75;;;;;;;2.02;100.00;99496.59;4967583;29;20103;-82
2022/12/26 09:21:21;;;;;;;4.50;1.33;;;;;;;2.09;100.00;99497.31;4968904;29;20051;-81
2022/12/26 09:23:48;;;;;;;4.32;1.40;;;;;;;1.81;100.00;99466.09;4966219;29;20050;-83
2022/12/26 09:26:18;;;;;;;2.80;1.30;;;;;;;2.08;100.00;99486.09;4969094;29;20111;-81
2022/12/26 09:28:45;;;;;;;2.97;1.60;;;;;;;2.27;100.00;99502.03;4970721;28;20043;-82
2022/12/26 09:31:16;;;;;;;6.63;2.22;;;;;;;2.27;100.00;99521.84;4970359;29;20461;-83
2022/12/26 09:33:43;;;;;;;4.47;1.60;;;;;;;2.15;100.00;99488.56;4969412;28;20044;-83
2022/12/26 09:36:13;;;;;;;5.00;1.70;;;;;;;2.28;100.00;99502.88;4985119;28;20051;-83
2022/12/26 09:38:42;;;;;;;3.75;1.38;;;;;;;2.10;100.00;99480.91;4964879;28;20055;-83
2022/12/26 09:41:18;;;;;;;6.03;1.70;;;;;;;2.26;100.00;99521.00;4958898;29;20486;-83
2022/12/26 09:43:49;;;;;;;6.93;1.45;;;;;;;2.25;100.00;99519.31;4969369;29;20070;-82
2022/12/26 09:46:20;;;;;;;7.10;1.45;;;;;;;2.01;100.00;99484.56;4960479;28;20047;-82
2022/12/26 09:48:58;;;;;;;6.22;1.70;;;;;;;2.28;100.00;99524.41;4970583;28;20041;-84
2022/12/26 09:51:27;;;;;;;5.95;1.52;;;;;;;2.03;100.00;99487.09;4974514;29;20067;-83
2022/12/26 09:53:55;;;;;;;5.80;1.38;;;;;;;2.28;100.00;99514.09;4973336;28;20050;-83
2022/12/26 09:56:26;;;;;;;3.08;1.30;;;;;;;2.20;100.00;99515.13;4974477;29;20054;-82
2022/12/26 09:59:18;;;;;;;4.82;1.63;;;;;;;2.16;100.00;99493.69;4973706;28;20070;-83
2022/12/26 10:01:47;;;;;;;4.70;1.52;;;;;;;2.13;100.00;99491.19;4971146;29;20055;-81
2022/12/26 10:04:33;;;;;;;4.07;1.50;;;;;;;2.19;100.00;99509.09;4971765;29;20043;-82
2022/12/26 10:07:25;;;;;;;6.38;1.52;;;;;;;2.38;100.00;99558.63;4972337;29;20051;-83
2022/12/26 10:10:19;;;;;;;14.20;2.35;;;;;;;2.56;100.00;99543.56;4986860;28;20054;-83
2022/12/26 10:12:59;;;;;;;5.32;1.35;;;;;;;2.63;100.00;99547.72;4959896;28;20059;-83
2022/12/26 10:15:29;;;;;;;5.05;1.58;;;;;;;2.66;100.00;99555.41;4962866;28;20047;-83
2022/12/26 10:18:04;;;;;;;5.25;1.70;;;;;;;2.31;100.00;99507.13;4962078;28;20054;-83
2022/12/26 10:20:53;;;;;;;6.35;2.85;;;;;;;2.87;100.00;99560.91;4965439;28;20059;-82
2022/12/26 10:23:30;;;;;;;3.88;1.40;;;;;;;2.89;100.00;99559.16;4961032;28;20132;-82
2022/12/26 10:26:08;;;;;;;4.97;1.30;;;;;;;2.65;100.00;99484.75;4949066;28;20059;-82
2022/12/26 10:28:48;;;;;;;6.53;2.70;;;;;;;3.16;100.00;99547.25;4970380;28;20462;-83
2022/12/26 10:31:31;;;;;;;4.03;1.55;;;;;;;3.09;100.00;99543.97;4950281;29;20059;-82
2022/12/26 10:34:27;;;;;;;3.95;1.40;;;;;;;3.18;100.00;99554.06;4948526;29;20079;-83
2022/12/26 10:37:00;;;;;;;4.20;1.40;;;;;;;3.21;100.00;99560.91;4956632;28;21095;-82
2022/12/26 10:39:32;;;;;;;6.75;1.75;;;;;;;3.28;100.00;99567.63;4958055;28;20058;-82
2022/12/26 10:42:10;;;;;;;3.97;1.48;;;;;;;2.97;100.00;99536.53;4956297;28;20051;-82
2022/12/26 10:44:39;;;;;;;6.95;1.30;;;;;;;3.08;100.00;99519.00;4956123;28;20054;-83
2022/12/26 10:47:22;;;;;;;5.05;1.73;;;;;;;3.00;100.00;99500.25;4948126;29;21725;-82
2022/12/26 10:49:49;;;;;;;5.53;1.80;;;;;;;3.07;100.00;99529.41;4963379;28;20098;-82
2022/12/26 10:52:20;;;;;;;4.85;1.45;;;;;;;3.30;100.00;99570.19;4959797;28;20481;-82
2022/12/26 10:54:53;;;;;;;5.53;1.58;;;;;;;3.19;100.00;99547.19;4965803;28;20050;-82
2022/12/26 10:57:41;;;;;;;3.33;1.70;;;;;;;2.90;100.00;99496.19;4955581;28;20082;-82
2022/12/26 11:00:21;;;;;;;2.88;1.75;;;;;;;3.37;100.00;99567.38;4957466;28;20055;-83
2022/12/26 11:03:07;;;;;;;3.97;1.50;;;;;;;3.31;100.00;99579.63;4969760;28;20106;-83
2022/12/26 11:05:41;;;;;;;6.00;1.60;;;;;;;3.09;100.00;99538.78;4965650;28;20465;-83
2022/12/26 11:08:37;;;;;;;;;;;;;;;3.50;100.00;99586.00;4956563;28;20091;-83
2022/12/26 11:11:21;;;;;;;5.55;1.58;;;;;;;3.47;100.00;99583.53;4956282;28;20350;-83
2022/12/26 11:13:57;;;;;;;3.55;1.30;;;;;;;3.36;100.00;99581.19;4946522;29;20071;-83
2022/12/26 11:16:33;;;;;;;3.42;1.30;;;;;;;3.18;100.00;99546.31;4941126;28;20059;-82
2022/12/26 11:19:01;;;;;;;3.80;1.53;;;;;;;3.65;100.00;99571.81;4947220;28;20080;-83
2022/12/26 11:21:31;;;;;;;3.47;1.55;;;;;;;3.42;100.00;99568.09;4955746;28;20059;-82
2022/12/26 11:24:19;;;;;;;5.65;1.92;;;;;;;3.58;100.00;99559.94;4944993;28;20048;-83
2022/12/26 11:26:46;;;;;;;10.85;3.85;;;;;;;3.31;100.00;99535.63;4955928;28;20047;-83
2022/12/26 11:29:17;;;;;;;14.60;5.00;;;;;;;3.79;100.00;99576.59;4965593;28;20402;-81
2022/12/26 11:31:59;;;;;;;13.70;4.95;;;;;;;3.59;100.00;99534.00;4958551;28;20070;-83
2022/12/26 11:34:36;;;;;;;9.73;3.90;;;;;;;3.54;100.00;99551.41;4971874;28;20043;-83
2022/12/26 11:37:05;;;;;;;7.10;2.10;;;;;;;3.66;100.00;99544.16;4955664;28;20055;-83
2022/12/26 11:39:34;;;;;;;8.02;1.95;;;;;;;3.45;100.00;99528.34;4955426;29;20054;-83
2022/12/26 11:42:22;;;;;;;4.28;1.50;;;;;;;3.98;100.00;99595.91;4954895;29;20062;-83
2022/12/26 11:44:51;;;;;;;3.92;1.35;;;;;;;3.66;100.00;99552.78;4959025;29;20050;-84
2022/12/26 11:47:25;;;;;;;4.15;1.60;;;;;;;3.91;100.00;99596.97;4958832;28;20055;-84
2022/12/26 11:50:00;;;;;;;3.88;1.50;;;;;;;4.21;100.00;99611.66;4961524;28;20051;-84
2022/12/26 11:52:44;;;;;;;2.72;1.20;;;;;;;3.98;100.00;99608.84;4953216;29;20051;-83
2022/12/26 11:55:26;;;;;;;5.22;1.50;;;;;;;4.11;100.00;99614.53;4952280;28;20059;-83
2022/12/26 11:58:05;;;;;;;3.97;1.60;;;;;;;4.07;100.00;99599.97;4956803;28;20047;-83
2022/12/26 12:00:38;;;;;;;6.15;1.50;;;;;;;3.94;100.00;99563.19;4955608;29;20051;-83
2022/12/26 12:03:27;;;;;;;4.70;1.50;;;;;;;3.96;100.00;99576.94;4951695;28;20121;-83
2022/12/26 12:06:06;;;;;;;3.55;1.23;;;;;;;4.08;100.00;99569.72;4936453;29;20309;-82
2022/12/26 12:08:48;;;;;;;6.28;1.90;;;;;;;4.36;100.00;99599.09;4959435;28;20058;-83
2022/12/26 12:11:41;;;;;;;4.57;1.58;;;;;;;4.20;100.00;99592.69;4966259;28;20047;-82
2022/12/26 12:14:34;;;;;;;3.08;1.52;;;;;;;4.43;100.00;99597.16;4954638;28;20066;-81
2022/12/26 12:17:21;;;;;;;5.25;1.48;;;;;;;4.50;100.00;99597.84;4955754;28;20047;-82
2022/12/26 12:19:54;;;;;;;3.80;1.20;;;;;;;4.44;100.00;99603.19;4956011;28;20047;-83
2022/12/26 12:22:48;;;;;;;3.85;1.45;;;;;;;4.50;100.00;99608.19;4956402;28;20055;-84
2022/12/26 12:25:27;;;;;;;5.35;1.40;;;;;;;4.59;100.00;99615.69;4954381;29;20062;-81
2022/12/26 12:28:00;;;;;;;2.55;1.30;;;;;;;4.70;100.00;99616.19;4955142;28;20062;-83
2022/12/26 12:30:40;;;;;;;1.98;1.17;;;;;;;4.84;100.00;99618.34;4968205;28;20054;-82
2022/12/26 12:33:18;;;;;;;5.00;1.95;;;;;;;4.69;100.00;99570.44;4969353;28;20058;-82
2022/12/26 12:36:00;;;;;;;4.78;1.50;;;;;;;4.94;100.00;99618.94;4950104;29;20393;-84
2022/12/26 12:38:58;;;;;;;3.35;1.33;;;;;;;4.70;100.00;99594.63;4956952;28;20081;-83
2022/12/26 12:41:55;;;;;;;5.72;1.83;;;;;;;4.73;100.00;99612.69;4964111;28;20074;-84
2022/12/26 12:45:02;;;;;;;5.45;2.00;;;;;;;4.72;100.00;99598.84;4943433;28;20043;-83
2022/12/26 12:47:35;;;;;;;7.03;2.25;;;;;;;4.94;100.00;99631.91;4964013;28;20058;-84
2022/12/26 12:50:22;;;;;;;5.45;2.10;;;;;;;4.58;100.00;99593.25;4955499;28;20051;-84
2022/12/26 12:53:32;;;;;;;4.20;1.60;;;;;;;4.82;100.00;99621.91;4943329;28;20050;-83
2022/12/26 12:56:19;;;;;;;4.10;1.70;;;;;;;4.52;100.00;99603.81;4951789;28;20048;-83
2022/12/26 12:59:03;;;;;;;4.93;1.50;;;;;;;4.38;100.00;99573.13;4950263;28;20461;-83
2022/12/26 13:01:37;;;;;;;4.90;1.58;;;;;;;4.50;100.00;99575.34;4955823;28;20054;-84
2022/12/26 13:04:25;;;;;;;3.03;1.23;;;;;;;4.60;100.00;99594.03;4955770;28;20047;-84
2022/12/26 13:07:11;;;;;;;2.28;1.30;;;;;;;4.89;100.00;99633.78;4962872;28;20452;-84
2022/12/26 13:09:50;;;;;;;3.80;1.38;;;;;;;4.91;100.00;99632.81;4959410;28;20062;-83
2022/12/26 13:12:38;;;;;;;2.47;1.25;;;;;;;4.82;100.00;99612.38;4951949;28;20055;-83
2022/12/26 13:15:29;;;;;;;4.30;1.38;;;;;;;5.03;100.00;99636.78;4969266;28;20078;-84
2022/12/26 13:18:04;;;;;;;8.85;2.38;;;;;;;4.99;100.00;99631.72;4955390;28;20077;-84
2022/12/26 13:20:45;;;;;;;10.07;3.55;;;;;;;5.12;100.00;99643.41;4954821;28;20055;-83
2022/12/26 13:26:17;;;;;;;9.63;1.60;;;;;;;4.71;100.00;99583.31;4952408;28;20055;-83
2022/12/26 13:29:01;;;;;;;4.93;1.58;;;;;;;4.99;100.00;99637.75;4958065;28;20051;-83
2022/12/26 13:31:36;;;;;;;5.65;1.95;;;;;;;4.62;100.00;99568.06;4958815;28;20062;-83
2022/12/26 13:34:08;;;;;;;4.80;1.60;;;;;;;4.78;100.00;99583.97;4964556;28;20055;-84
2022/12/26 13:36:41;;;;;;;6.88;2.05;;;;;;;4.63;100.00;99573.22;4958987;28;20054;-84
2022/12/26 13:39:10;;;;;;;6.68;2.13;;;;;;;5.12;100.00;99628.69;4958260;28;20055;-84
2022/12/26 13:44:34;;;;;;;7.25;2.10;;;;;;;4.77;100.00;99603.06;4949811;28;20067;-84
2022/12/26 13:47:01;;;;;;;4.53;1.50;;;;;;;4.67;100.00;99579.97;4953642;28;20055;-83
2022/12/26 13:49:38;;;;;;;4.68;1.35;;;;;;;5.08;100.00;99642.69;4950894;28;20052;-84
2022/12/26 13:52:11;;;;;;;2.10;1.10;;;;;;;4.95;100.00;99643.94;4951287;28;20079;-83
2022/12/26 13:54:46;;;;;;;4.00;1.42;;;;;;;4.92;100.00;99654.41;4958818;28;20051;-83
2022/12/26 13:57:43;;;;;;;3.75;1.58;;;;;;;4.91;100.00;99658.75;4951730;28;20055;-84
2022/12/26 14:00:22;;;;;;;3.78;1.40;;;;;;;4.59;100.00;99617.44;4947774;28;20517;-84
2022/12/26 14:03:10;;;;;;;2.92;1.42;;;;;;;4.81;100.00;99669.47;4970200;28;20062;-84
2022/12/26 14:06:03;;;;;;;5.43;1.48;;;;;;;4.64;100.00;99681.22;4945715;29;20047;-83
2022/12/26 14:09:09;;;;;;;3.30;1.20;;;;;;;4.65;100.00;99679.47;4939406;29;20078;-84
2022/12/26 14:11:48;;;;;;;4.35;1.35;;;;;;;4.76;100.00;99687.75;4971926;28;20051;-84
2022/12/26 14:14:55;;;;;;;9.82;1.85;;;;;;;4.80;100.00;99693.69;4957448;29;20474;-83